sensor_id;sensor_type;location;lat;lon;timestamp;P1;durP1;ratioP1;P2;durP2;ratioP2
17398;SDS011;8817;48.170;8.592;2023-04-30T00:00:11;7.67;;;6.90;;
17398;SDS011;8817;48.170;8.592;2023-04-30T00:02:38;7.77;;;7.07;;
17398;SDS011;8817;48.170;8.592;2023-04-30T00:05:05;8.90;;;7.37;;
17398;SDS011;8817;48.170;8.592;2023-04-30T00:07:32;8.23;;;6.90;;
17398;SDS011;8817;48.170;8.592;2023-04-30T00:10:01;9.60;;;7.03;;
17398;SDS011;8817;48.170;8.592;2023-04-30T00:12:29;8.47;;;7.50;;
17398;SDS011;8817;48.170;8.592;2023-04-30T00:14:56;7.50;;;6.77;;
17398;SDS011;8817;48.170;8.592;2023-04-30T00:17:23;7.80;;;7.00;;
17398;SDS011;8817;48.170;8.592;2023-04-30T00:19:50;7.50;;;6.80;;
17398;SDS011;8817;48.170;8.592;2023-04-30T00:22:17;8.70;;;6.60;;
17398;SDS011;8817;48.170;8.592;2023-04-30T00:24:44;8.23;;;7.40;;
17398;SDS011;8817;48.170;8.592;2023-04-30T00:27:12;7.80;;;7.07;;
17398;SDS011;8817;48.170;8.592;2023-04-30T00:29:39;7.80;;;7.10;;
17398;SDS011;8817;48.170;8.592;2023-04-30T00:32:06;7.93;;;7.13;;
17398;SDS011;8817;48.170;8.592;2023-04-30T00:34:33;12.53;;;7.13;;
17398;SDS011;8817;48.170;8.592;2023-04-30T00:37:00;8.00;;;6.93;;
17398;SDS011;8817;48.170;8.592;2023-04-30T00:39:27;7.87;;;7.17;;
17398;SDS011;8817;48.170;8.592;2023-04-30T00:41:54;9.03;;;7.10;;
17398;SDS011;8817;48.170;8.592;2023-04-30T00:44:22;8.75;;;7.55;;
17398;SDS011;8817;48.170;8.592;2023-04-30T00:46:49;7.97;;;7.17;;
17398;SDS011;8817;48.170;8.592;2023-04-30T00:49:16;13.57;;;7.67;;
17398;SDS011;8817;48.170;8.592;2023-04-30T00:51:42;7.93;;;7.10;;
17398;SDS011;8817;48.170;8.592;2023-04-30T00:54:10;7.47;;;6.77;;
17398;SDS011;8817;48.170;8.592;2023-04-30T00:56:38;8.37;;;7.47;;
17398;SDS011;8817;48.170;8.592;2023-04-30T00:59:05;8.17;;;7.40;;
17398;SDS011;8817;48.170;8.592;2023-04-30T01:01:33;7.70;;;6.90;;
17398;SDS011;8817;48.170;8.592;2023-04-30T01:04:00;9.30;;;7.80;;
17398;SDS011;8817;48.170;8.592;2023-04-30T01:06:27;8.47;;;7.47;;
17398;SDS011;8817;48.170;8.592;2023-04-30T01:08:54;7.67;;;6.97;;
17398;SDS011;8817;48.170;8.592;2023-04-30T01:11:24;8.10;;;7.20;;
17398;SDS011;8817;48.170;8.592;2023-04-30T01:14:01;9.47;;;7.10;;
17398;SDS011;8817;48.170;8.592;2023-04-30T01:16:39;8.53;;;7.67;;
17398;SDS011;8817;48.170;8.592;2023-04-30T01:19:16;9.73;;;7.60;;
17398;SDS011;8817;48.170;8.592;2023-04-30T01:22:03;7.83;;;7.03;;
17398;SDS011;8817;48.170;8.592;2023-04-30T01:24:42;8.63;;;7.30;;
17398;SDS011;8817;48.170;8.592;2023-04-30T01:27:22;16.03;;;7.90;;
17398;SDS011;8817;48.170;8.592;2023-04-30T01:29:58;8.57;;;7.00;;
17398;SDS011;8817;48.170;8.592;2023-04-30T01:32:28;10.63;;;7.47;;
17398;SDS011;8817;48.170;8.592;2023-04-30T01:34:55;10.93;;;8.00;;
17398;SDS011;8817;48.170;8.592;2023-04-30T01:37:23;8.80;;;7.13;;
17398;SDS011;8817;48.170;8.592;2023-04-30T01:40:00;10.33;;;7.87;;
17398;SDS011;8817;48.170;8.592;2023-04-30T01:42:40;8.43;;;7.37;;
17398;SDS011;8817;48.170;8.592;2023-04-30T01:45:30;9.33;;;7.60;;
17398;SDS011;8817;48.170;8.592;2023-04-30T01:48:07;9.30;;;7.37;;
17398;SDS011;8817;48.170;8.592;2023-04-30T01:50:46;8.57;;;7.27;;
17398;SDS011;8817;48.170;8.592;2023-04-30T01:53:18;9.40;;;7.63;;
17398;SDS011;8817;48.170;8.592;2023-04-30T01:55:50;9.90;;;7.63;;
17398;SDS011;8817;48.170;8.592;2023-04-30T01:58:22;9.33;;;7.47;;
17398;SDS011;8817;48.170;8.592;2023-04-30T02:00:52;8.73;;;7.83;;
17398;SDS011;8817;48.170;8.592;2023-04-30T02:03:18;9.77;;;7.37;;
17398;SDS011;8817;48.170;8.592;2023-04-30T02:05:46;9.43;;;7.87;;
17398;SDS011;8817;48.170;8.592;2023-04-30T02:08:13;8.83;;;7.50;;
17398;SDS011;8817;48.170;8.592;2023-04-30T02:10:40;9.40;;;7.70;;
17398;SDS011;8817;48.170;8.592;2023-04-30T02:13:07;8.90;;;7.53;;
17398;SDS011;8817;48.170;8.592;2023-04-30T02:15:34;9.70;;;7.53;;
17398;SDS011;8817;48.170;8.592;2023-04-30T02:18:02;9.37;;;8.00;;
17398;SDS011;8817;48.170;8.592;2023-04-30T02:20:29;9.33;;;7.73;;
17398;SDS011;8817;48.170;8.592;2023-04-30T02:22:56;9.17;;;7.60;;
17398;SDS011;8817;48.170;8.592;2023-04-30T02:25:23;9.10;;;7.60;;
17398;SDS011;8817;48.170;8.592;2023-04-30T02:27:50;13.07;;;7.70;;
17398;SDS011;8817;48.170;8.592;2023-04-30T02:30:17;11.73;;;7.80;;
17398;SDS011;8817;48.170;8.592;2023-04-30T02:32:45;10.37;;;7.90;;
17398;SDS011;8817;48.170;8.592;2023-04-30T02:35:13;9.17;;;7.40;;
17398;SDS011;8817;48.170;8.592;2023-04-30T02:37:40;10.70;;;8.17;;
17398;SDS011;8817;48.170;8.592;2023-04-30T02:40:07;12.20;;;8.57;;
17398;SDS011;8817;48.170;8.592;2023-04-30T02:42:35;10.37;;;7.77;;
17398;SDS011;8817;48.170;8.592;2023-04-30T02:45:01;11.77;;;8.07;;
17398;SDS011;8817;48.170;8.592;2023-04-30T02:47:29;13.67;;;7.70;;
17398;SDS011;8817;48.170;8.592;2023-04-30T02:49:55;12.97;;;7.80;;
17398;SDS011;8817;48.170;8.592;2023-04-30T02:52:24;11.87;;;8.40;;
17398;SDS011;8817;48.170;8.592;2023-04-30T02:54:51;9.83;;;7.97;;
17398;SDS011;8817;48.170;8.592;2023-04-30T02:57:18;11.27;;;8.50;;
17398;SDS011;8817;48.170;8.592;2023-04-30T02:59:44;12.50;;;8.20;;
17398;SDS011;8817;48.170;8.592;2023-04-30T03:02:11;13.13;;;8.57;;
17398;SDS011;8817;48.170;8.592;2023-04-30T03:04:38;13.07;;;8.57;;
17398;SDS011;8817;48.170;8.592;2023-04-30T03:07:05;10.27;;;8.43;;
17398;SDS011;8817;48.170;8.592;2023-04-30T03:09:33;10.10;;;8.23;;
17398;SDS011;8817;48.170;8.592;2023-04-30T03:12:01;12.50;;;8.60;;
17398;SDS011;8817;48.170;8.592;2023-04-30T03:14:28;10.33;;;8.20;;
17398;SDS011;8817;48.170;8.592;2023-04-30T03:16:55;9.27;;;8.17;;
17398;SDS011;8817;48.170;8.592;2023-04-30T03:19:22;11.80;;;7.90;;
17398;SDS011;8817;48.170;8.592;2023-04-30T03:21:49;9.03;;;7.53;;
17398;SDS011;8817;48.170;8.592;2023-04-30T03:24:16;8.53;;;7.63;;
17398;SDS011;8817;48.170;8.592;2023-04-30T03:26:45;11.50;;;8.13;;
17398;SDS011;8817;48.170;8.592;2023-04-30T03:29:11;9.10;;;7.87;;
17398;SDS011;8817;48.170;8.592;2023-04-30T03:31:38;10.70;;;8.33;;
17398;SDS011;8817;48.170;8.592;2023-04-30T03:34:05;11.80;;;8.10;;
17398;SDS011;8817;48.170;8.592;2023-04-30T03:36:32;8.53;;;7.73;;
17398;SDS011;8817;48.170;8.592;2023-04-30T03:38:59;11.43;;;8.10;;
17398;SDS011;8817;48.170;8.592;2023-04-30T03:41:26;10.07;;;7.67;;
17398;SDS011;8817;48.170;8.592;2023-04-30T03:43:54;9.13;;;7.80;;
17398;SDS011;8817;48.170;8.592;2023-04-30T03:46:21;9.20;;;8.10;;
17398;SDS011;8817;48.170;8.592;2023-04-30T03:48:48;9.43;;;8.10;;
17398;SDS011;8817;48.170;8.592;2023-04-30T03:51:15;10.00;;;8.23;;
17398;SDS011;8817;48.170;8.592;2023-04-30T03:53:43;10.53;;;8.00;;
17398;SDS011;8817;48.170;8.592;2023-04-30T03:56:11;10.53;;;7.67;;
17398;SDS011;8817;48.170;8.592;2023-04-30T03:58:38;9.63;;;8.17;;
17398;SDS011;8817;48.170;8.592;2023-04-30T04:01:06;9.90;;;8.03;;
17398;SDS011;8817;48.170;8.592;2023-04-30T04:03:33;10.43;;;8.27;;
17398;SDS011;8817;48.170;8.592;2023-04-30T04:06:00;8.80;;;7.83;;
17398;SDS011;8817;48.170;8.592;2023-04-30T04:08:29;9.67;;;8.17;;
17398;SDS011;8817;48.170;8.592;2023-04-30T04:10:56;9.23;;;7.47;;
17398;SDS011;8817;48.170;8.592;2023-04-30T04:13:23;9.00;;;7.83;;
17398;SDS011;8817;48.170;8.592;2023-04-30T04:15:50;12.37;;;8.20;;
17398;SDS011;8817;48.170;8.592;2023-04-30T04:18:18;11.27;;;8.07;;
17398;SDS011;8817;48.170;8.592;2023-04-30T04:20:45;9.90;;;7.87;;
17398;SDS011;8817;48.170;8.592;2023-04-30T04:23:12;9.00;;;7.80;;
17398;SDS011;8817;48.170;8.592;2023-04-30T04:25:39;7.80;;;7.20;;
17398;SDS011;8817;48.170;8.592;2023-04-30T04:28:08;8.70;;;7.63;;
17398;SDS011;8817;48.170;8.592;2023-04-30T04:30:35;8.70;;;7.80;;
17398;SDS011;8817;48.170;8.592;2023-04-30T04:33:02;8.97;;;7.90;;
17398;SDS011;8817;48.170;8.592;2023-04-30T04:35:31;8.57;;;7.57;;
17398;SDS011;8817;48.170;8.592;2023-04-30T04:37:58;8.10;;;7.40;;
17398;SDS011;8817;48.170;8.592;2023-04-30T04:40:25;9.10;;;7.77;;
17398;SDS011;8817;48.170;8.592;2023-04-30T04:42:52;10.40;;;7.70;;
17398;SDS011;8817;48.170;8.592;2023-04-30T04:45:19;8.27;;;7.47;;
17398;SDS011;8817;48.170;8.592;2023-04-30T04:47:47;8.23;;;7.47;;
17398;SDS011;8817;48.170;8.592;2023-04-30T04:50:14;11.00;;;7.90;;
17398;SDS011;8817;48.170;8.592;2023-04-30T04:52:43;12.53;;;7.77;;
17398;SDS011;8817;48.170;8.592;2023-04-30T04:55:10;8.17;;;7.37;;
17398;SDS011;8817;48.170;8.592;2023-04-30T04:57:38;8.50;;;7.70;;
17398;SDS011;8817;48.170;8.592;2023-04-30T05:00:06;12.43;;;7.73;;
17398;SDS011;8817;48.170;8.592;2023-04-30T05:02:34;8.17;;;7.37;;
17398;SDS011;8817;48.170;8.592;2023-04-30T05:05:01;8.27;;;7.27;;
17398;SDS011;8817;48.170;8.592;2023-04-30T05:07:28;8.53;;;7.43;;
17398;SDS011;8817;48.170;8.592;2023-04-30T05:09:56;7.93;;;7.13;;
17398;SDS011;8817;48.170;8.592;2023-04-30T05:12:23;8.67;;;7.77;;
17398;SDS011;8817;48.170;8.592;2023-04-30T05:14:50;7.80;;;7.10;;
17398;SDS011;8817;48.170;8.592;2023-04-30T05:17:17;8.10;;;7.40;;
17398;SDS011;8817;48.170;8.592;2023-04-30T05:19:44;8.53;;;7.73;;
17398;SDS011;8817;48.170;8.592;2023-04-30T05:22:11;7.97;;;7.17;;
17398;SDS011;8817;48.170;8.592;2023-04-30T05:24:38;7.80;;;7.10;;
17398;SDS011;8817;48.170;8.592;2023-04-30T05:27:06;8.43;;;7.40;;
17398;SDS011;8817;48.170;8.592;2023-04-30T05:29:33;8.20;;;7.47;;
17398;SDS011;8817;48.170;8.592;2023-04-30T05:32:00;8.67;;;7.20;;
17398;SDS011;8817;48.170;8.592;2023-04-30T05:34:27;8.40;;;7.43;;
17398;SDS011;8817;48.170;8.592;2023-04-30T05:36:54;7.73;;;7.07;;
17398;SDS011;8817;48.170;8.592;2023-04-30T05:39:21;8.27;;;7.53;;
17398;SDS011;8817;48.170;8.592;2023-04-30T05:41:48;7.93;;;7.23;;
17398;SDS011;8817;48.170;8.592;2023-04-30T05:44:16;8.73;;;7.43;;
17398;SDS011;8817;48.170;8.592;2023-04-30T05:46:43;8.00;;;7.30;;
17398;SDS011;8817;48.170;8.592;2023-04-30T05:49:10;7.87;;;7.23;;
17398;SDS011;8817;48.170;8.592;2023-04-30T05:51:37;8.60;;;7.80;;
17398;SDS011;8817;48.170;8.592;2023-04-30T05:54:03;8.27;;;7.40;;
17398;SDS011;8817;48.170;8.592;2023-04-30T05:56:30;7.90;;;7.20;;
17398;SDS011;8817;48.170;8.592;2023-04-30T05:58:57;7.60;;;7.00;;
17398;SDS011;8817;48.170;8.592;2023-04-30T06:01:25;8.13;;;7.30;;
17398;SDS011;8817;48.170;8.592;2023-04-30T06:03:53;8.23;;;7.53;;
17398;SDS011;8817;48.170;8.592;2023-04-30T06:06:20;8.37;;;7.67;;
17398;SDS011;8817;48.170;8.592;2023-04-30T06:08:47;8.40;;;7.40;;
17398;SDS011;8817;48.170;8.592;2023-04-30T06:11:14;8.47;;;7.67;;
17398;SDS011;8817;48.170;8.592;2023-04-30T06:13:41;8.53;;;7.60;;
17398;SDS011;8817;48.170;8.592;2023-04-30T06:16:07;8.07;;;7.47;;
17398;SDS011;8817;48.170;8.592;2023-04-30T06:18:36;8.00;;;7.17;;
17398;SDS011;8817;48.170;8.592;2023-04-30T06:21:03;7.77;;;7.17;;
17398;SDS011;8817;48.170;8.592;2023-04-30T06:23:29;7.97;;;7.23;;
17398;SDS011;8817;48.170;8.592;2023-04-30T06:25:56;7.73;;;6.97;;
17398;SDS011;8817;48.170;8.592;2023-04-30T06:28:23;8.10;;;7.40;;
17398;SDS011;8817;48.170;8.592;2023-04-30T06:30:50;7.77;;;7.03;;
17398;SDS011;8817;48.170;8.592;2023-04-30T06:33:18;7.90;;;7.20;;
17398;SDS011;8817;48.170;8.592;2023-04-30T06:35:46;7.77;;;7.10;;
17398;SDS011;8817;48.170;8.592;2023-04-30T06:38:15;7.77;;;7.00;;
17398;SDS011;8817;48.170;8.592;2023-04-30T06:40:43;8.03;;;7.33;;
17398;SDS011;8817;48.170;8.592;2023-04-30T06:43:10;7.83;;;7.13;;
17398;SDS011;8817;48.170;8.592;2023-04-30T06:45:37;7.50;;;6.90;;
17398;SDS011;8817;48.170;8.592;2023-04-30T06:48:04;7.43;;;6.83;;
17398;SDS011;8817;48.170;8.592;2023-04-30T06:50:31;8.23;;;7.53;;
17398;SDS011;8817;48.170;8.592;2023-04-30T06:52:59;8.40;;;7.50;;
17398;SDS011;8817;48.170;8.592;2023-04-30T06:55:27;8.32;;;7.53;;
17398;SDS011;8817;48.170;8.592;2023-04-30T06:57:53;7.50;;;6.90;;
17398;SDS011;8817;48.170;8.592;2023-04-30T07:00:22;7.70;;;7.00;;
17398;SDS011;8817;48.170;8.592;2023-04-30T07:02:49;8.10;;;7.30;;
17398;SDS011;8817;48.170;8.592;2023-04-30T07:05:16;7.22;;;6.63;;
17398;SDS011;8817;48.170;8.592;2023-04-30T07:07:43;8.27;;;7.40;;
17398;SDS011;8817;48.170;8.592;2023-04-30T07:10:12;7.50;;;6.90;;
17398;SDS011;8817;48.170;8.592;2023-04-30T07:12:38;7.75;;;7.05;;
17398;SDS011;8817;48.170;8.592;2023-04-30T07:15:06;7.80;;;7.20;;
17398;SDS011;8817;48.170;8.592;2023-04-30T07:17:33;7.90;;;7.20;;
17398;SDS011;8817;48.170;8.592;2023-04-30T07:20:01;7.82;;;7.20;;
17398;SDS011;8817;48.170;8.592;2023-04-30T07:22:29;7.97;;;6.80;;
17398;SDS011;8817;48.170;8.592;2023-04-30T07:24:56;8.20;;;7.40;;
17398;SDS011;8817;48.170;8.592;2023-04-30T07:27:24;8.13;;;7.32;;
17398;SDS011;8817;48.170;8.592;2023-04-30T07:29:52;8.90;;;7.40;;
17398;SDS011;8817;48.170;8.592;2023-04-30T07:32:19;8.00;;;7.18;;
17398;SDS011;8817;48.170;8.592;2023-04-30T07:34:46;8.15;;;7.35;;
17398;SDS011;8817;48.170;8.592;2023-04-30T07:37:13;7.53;;;6.90;;
17398;SDS011;8817;48.170;8.592;2023-04-30T07:39:40;7.75;;;7.05;;
17398;SDS011;8817;48.170;8.592;2023-04-30T07:42:07;7.97;;;7.20;;
17398;SDS011;8817;48.170;8.592;2023-04-30T07:44:35;8.82;;;7.10;;
17398;SDS011;8817;48.170;8.592;2023-04-30T07:47:02;7.50;;;6.90;;
17398;SDS011;8817;48.170;8.592;2023-04-30T07:49:29;7.80;;;7.10;;
17398;SDS011;8817;48.170;8.592;2023-04-30T07:51:56;7.43;;;6.72;;
17398;SDS011;8817;48.170;8.592;2023-04-30T07:54:25;7.57;;;6.88;;
17398;SDS011;8817;48.170;8.592;2023-04-30T07:56:51;7.50;;;6.90;;
17398;SDS011;8817;48.170;8.592;2023-04-30T07:59:18;7.68;;;6.97;;
17398;SDS011;8817;48.170;8.592;2023-04-30T08:01:49;7.80;;;7.10;;
17398;SDS011;8817;48.170;8.592;2023-04-30T08:04:16;7.90;;;7.20;;
17398;SDS011;8817;48.170;8.592;2023-04-30T08:06:43;8.88;;;6.90;;
17398;SDS011;8817;48.170;8.592;2023-04-30T08:09:10;7.70;;;7.10;;
17398;SDS011;8817;48.170;8.592;2023-04-30T08:11:37;7.65;;;6.97;;
17398;SDS011;8817;48.170;8.592;2023-04-30T08:14:04;8.13;;;7.32;;
17398;SDS011;8817;48.170;8.592;2023-04-30T08:16:31;7.97;;;6.85;;
17398;SDS011;8817;48.170;8.592;2023-04-30T08:18:59;7.68;;;7.03;;
17398;SDS011;8817;48.170;8.592;2023-04-30T08:21:29;7.55;;;6.93;;
17398;SDS011;8817;48.170;8.592;2023-04-30T08:23:56;7.72;;;7.05;;
17398;SDS011;8817;48.170;8.592;2023-04-30T08:26:24;7.60;;;7.00;;
17398;SDS011;8817;48.170;8.592;2023-04-30T08:28:51;8.30;;;7.60;;
17398;SDS011;8817;48.170;8.592;2023-04-30T08:31:18;7.45;;;6.85;;
17398;SDS011;8817;48.170;8.592;2023-04-30T08:33:45;7.32;;;6.82;;
17398;SDS011;8817;48.170;8.592;2023-04-30T08:36:13;7.82;;;7.13;;
17398;SDS011;8817;48.170;8.592;2023-04-30T08:38:40;7.50;;;6.80;;
17398;SDS011;8817;48.170;8.592;2023-04-30T08:41:08;7.35;;;6.75;;
17398;SDS011;8817;48.170;8.592;2023-04-30T08:43:36;6.93;;;6.43;;
17398;SDS011;8817;48.170;8.592;2023-04-30T08:46:04;7.85;;;7.15;;
17398;SDS011;8817;48.170;8.592;2023-04-30T08:48:31;7.45;;;6.85;;
17398;SDS011;8817;48.170;8.592;2023-04-30T08:50:59;7.00;;;6.43;;
17398;SDS011;8817;48.170;8.592;2023-04-30T08:53:29;6.85;;;6.35;;
17398;SDS011;8817;48.170;8.592;2023-04-30T08:55:56;7.25;;;6.75;;
17398;SDS011;8817;48.170;8.592;2023-04-30T08:58:23;7.78;;;7.07;;
17398;SDS011;8817;48.170;8.592;2023-04-30T09:00:50;7.03;;;6.40;;
17398;SDS011;8817;48.170;8.592;2023-04-30T09:03:17;6.88;;;6.38;;
17398;SDS011;8817;48.170;8.592;2023-04-30T09:05:46;7.53;;;6.75;;
17398;SDS011;8817;48.170;8.592;2023-04-30T09:08:16;7.20;;;6.60;;
17398;SDS011;8817;48.170;8.592;2023-04-30T09:10:45;7.30;;;6.60;;
17398;SDS011;8817;48.170;8.592;2023-04-30T09:13:12;7.07;;;6.47;;
17398;SDS011;8817;48.170;8.592;2023-04-30T09:15:39;7.25;;;6.65;;
17398;SDS011;8817;48.170;8.592;2023-04-30T09:18:11;6.90;;;6.40;;
17398;SDS011;8817;48.170;8.592;2023-04-30T09:20:54;6.70;;;6.10;;
17398;SDS011;8817;48.170;8.592;2023-04-30T09:23:22;6.35;;;5.95;;
17398;SDS011;8817;48.170;8.592;2023-04-30T09:25:51;6.55;;;6.05;;
17398;SDS011;8817;48.170;8.592;2023-04-30T09:28:18;6.80;;;6.30;;
17398;SDS011;8817;48.170;8.592;2023-04-30T09:30:48;6.35;;;5.93;;
17398;SDS011;8817;48.170;8.592;2023-04-30T09:33:15;6.35;;;5.95;;
17398;SDS011;8817;48.170;8.592;2023-04-30T09:35:42;6.20;;;5.80;;
17398;SDS011;8817;48.170;8.592;2023-04-30T09:38:24;6.22;;;5.75;;
17398;SDS011;8817;48.170;8.592;2023-04-30T09:40:52;5.65;;;5.35;;
17398;SDS011;8817;48.170;8.592;2023-04-30T09:43:19;5.80;;;5.40;;
17398;SDS011;8817;48.170;8.592;2023-04-30T09:45:47;5.60;;;5.30;;
17398;SDS011;8817;48.170;8.592;2023-04-30T09:48:15;5.80;;;5.50;;
17398;SDS011;8817;48.170;8.592;2023-04-30T09:50:43;6.50;;;5.97;;
17398;SDS011;8817;48.170;8.592;2023-04-30T09:53:12;5.55;;;5.25;;
17398;SDS011;8817;48.170;8.592;2023-04-30T09:55:42;5.85;;;5.45;;
17398;SDS011;8817;48.170;8.592;2023-04-30T09:58:11;5.45;;;5.25;;
17398;SDS011;8817;48.170;8.592;2023-04-30T10:00:39;6.00;;;5.50;;
17398;SDS011;8817;48.170;8.592;2023-04-30T10:03:08;5.88;;;5.57;;
17398;SDS011;8817;48.170;8.592;2023-04-30T10:05:36;6.00;;;5.70;;
17398;SDS011;8817;48.170;8.592;2023-04-30T10:08:12;6.00;;;5.70;;
17398;SDS011;8817;48.170;8.592;2023-04-30T10:10:44;5.70;;;5.40;;
17398;SDS011;8817;48.170;8.592;2023-04-30T10:13:17;5.97;;;5.63;;
17398;SDS011;8817;48.170;8.592;2023-04-30T10:15:47;5.68;;;5.30;;
17398;SDS011;8817;48.170;8.592;2023-04-30T10:18:17;5.82;;;5.50;;
17398;SDS011;8817;48.170;8.592;2023-04-30T10:20:47;6.32;;;5.93;;
17398;SDS011;8817;48.170;8.592;2023-04-30T10:23:15;6.15;;;5.75;;
17398;SDS011;8817;48.170;8.592;2023-04-30T10:25:42;5.75;;;5.40;;
17398;SDS011;8817;48.170;8.592;2023-04-30T10:28:10;6.65;;;6.15;;
17398;SDS011;8817;48.170;8.592;2023-04-30T10:30:39;6.03;;;5.47;;
17398;SDS011;8817;48.170;8.592;2023-04-30T10:33:09;5.57;;;5.28;;
17398;SDS011;8817;48.170;8.592;2023-04-30T10:35:44;5.57;;;5.22;;
17398;SDS011;8817;48.170;8.592;2023-04-30T10:38:16;5.60;;;5.30;;
17398;SDS011;8817;48.170;8.592;2023-04-30T10:40:47;5.60;;;5.30;;
17398;SDS011;8817;48.170;8.592;2023-04-30T10:43:16;5.82;;;5.55;;
17398;SDS011;8817;48.170;8.592;2023-04-30T10:45:45;5.82;;;5.53;;
17398;SDS011;8817;48.170;8.592;2023-04-30T10:48:13;6.18;;;5.78;;
17398;SDS011;8817;48.170;8.592;2023-04-30T10:50:49;5.90;;;5.60;;
17398;SDS011;8817;48.170;8.592;2023-04-30T10:53:17;5.70;;;5.40;;
17398;SDS011;8817;48.170;8.592;2023-04-30T10:55:47;6.10;;;5.80;;
17398;SDS011;8817;48.170;8.592;2023-04-30T10:58:25;6.25;;;5.75;;
17398;SDS011;8817;48.170;8.592;2023-04-30T11:01:02;5.90;;;5.50;;
17398;SDS011;8817;48.170;8.592;2023-04-30T11:03:32;6.40;;;6.00;;
17398;SDS011;8817;48.170;8.592;2023-04-30T11:06:06;6.38;;;5.68;;
17398;SDS011;8817;48.170;8.592;2023-04-30T11:08:34;5.50;;;5.10;;
17398;SDS011;8817;48.170;8.592;2023-04-30T11:11:02;6.45;;;5.55;;
17398;SDS011;8817;48.170;8.592;2023-04-30T11:13:37;5.57;;;5.28;;
17398;SDS011;8817;48.170;8.592;2023-04-30T11:16:07;6.60;;;6.10;;
17398;SDS011;8817;48.170;8.592;2023-04-30T11:18:39;5.80;;;5.40;;
17398;SDS011;8817;48.170;8.592;2023-04-30T11:21:07;5.50;;;5.20;;
17398;SDS011;8817;48.170;8.592;2023-04-30T11:23:35;5.63;;;5.32;;
17398;SDS011;8817;48.170;8.592;2023-04-30T11:26:05;5.53;;;5.22;;
17398;SDS011;8817;48.170;8.592;2023-04-30T11:28:33;5.30;;;5.05;;
17398;SDS011;8817;48.170;8.592;2023-04-30T11:31:02;5.60;;;5.30;;
17398;SDS011;8817;48.170;8.592;2023-04-30T11:33:31;5.57;;;5.28;;
17398;SDS011;8817;48.170;8.592;2023-04-30T11:35:59;5.93;;;5.53;;
17398;SDS011;8817;48.170;8.592;2023-04-30T11:38:27;6.07;;;5.65;;
17398;SDS011;8817;48.170;8.592;2023-04-30T11:40:55;5.95;;;5.65;;
17398;SDS011;8817;48.170;8.592;2023-04-30T11:43:22;6.03;;;5.63;;
17398;SDS011;8817;48.170;8.592;2023-04-30T11:46:03;5.72;;;5.43;;
17398;SDS011;8817;48.170;8.592;2023-04-30T11:48:34;6.10;;;5.70;;
17398;SDS011;8817;48.170;8.592;2023-04-30T11:51:02;6.18;;;5.70;;
17398;SDS011;8817;48.170;8.592;2023-04-30T11:53:30;6.03;;;5.72;;
17398;SDS011;8817;48.170;8.592;2023-04-30T11:56:01;5.60;;;5.30;;
17398;SDS011;8817;48.170;8.592;2023-04-30T11:58:32;5.75;;;5.45;;
17398;SDS011;8817;48.170;8.592;2023-04-30T12:00:59;5.88;;;5.47;;
17398;SDS011;8817;48.170;8.592;2023-04-30T12:03:26;5.80;;;5.40;;
17398;SDS011;8817;48.170;8.592;2023-04-30T12:05:56;5.95;;;5.55;;
17398;SDS011;8817;48.170;8.592;2023-04-30T12:08:23;6.05;;;5.75;;
17398;SDS011;8817;48.170;8.592;2023-04-30T12:10:50;5.88;;;5.57;;
17398;SDS011;8817;48.170;8.592;2023-04-30T12:13:17;5.90;;;5.60;;
17398;SDS011;8817;48.170;8.592;2023-04-30T12:15:55;5.97;;;5.57;;
17398;SDS011;8817;48.170;8.592;2023-04-30T12:18:24;5.60;;;5.30;;
17398;SDS011;8817;48.170;8.592;2023-04-30T12:20:51;6.10;;;5.60;;
17398;SDS011;8817;48.170;8.592;2023-04-30T12:23:20;5.70;;;5.40;;
17398;SDS011;8817;48.170;8.592;2023-04-30T12:25:47;5.85;;;5.47;;
17398;SDS011;8817;48.170;8.592;2023-04-30T12:28:14;5.88;;;5.57;;
17398;SDS011;8817;48.170;8.592;2023-04-30T12:30:41;5.60;;;5.30;;
17398;SDS011;8817;48.170;8.592;2023-04-30T12:33:09;5.90;;;5.50;;
17398;SDS011;8817;48.170;8.592;2023-04-30T12:35:36;6.15;;;5.65;;
17398;SDS011;8817;48.170;8.592;2023-04-30T12:38:07;5.72;;;5.43;;
17398;SDS011;8817;48.170;8.592;2023-04-30T12:40:36;5.80;;;5.47;;
17398;SDS011;8817;48.170;8.592;2023-04-30T12:43:03;5.65;;;5.35;;
17398;SDS011;8817;48.170;8.592;2023-04-30T12:45:43;6.00;;;5.60;;
17398;SDS011;8817;48.170;8.592;2023-04-30T12:48:11;5.70;;;5.40;;
17398;SDS011;8817;48.170;8.592;2023-04-30T12:50:39;6.00;;;5.70;;
17398;SDS011;8817;48.170;8.592;2023-04-30T12:53:07;5.88;;;5.50;;
17398;SDS011;8817;48.170;8.592;2023-04-30T12:55:35;6.20;;;5.80;;
17398;SDS011;8817;48.170;8.592;2023-04-30T12:58:04;5.72;;;5.35;;
17398;SDS011;8817;48.170;8.592;2023-04-30T13:00:42;5.60;;;5.30;;
17398;SDS011;8817;48.170;8.592;2023-04-30T13:03:13;6.30;;;5.90;;
17398;SDS011;8817;48.170;8.592;2023-04-30T13:05:42;6.22;;;5.60;;
17398;SDS011;8817;48.170;8.592;2023-04-30T13:08:12;5.78;;;5.47;;
17398;SDS011;8817;48.170;8.592;2023-04-30T13:10:40;6.30;;;5.90;;
17398;SDS011;8817;48.170;8.592;2023-04-30T13:13:07;5.78;;;5.47;;
17398;SDS011;8817;48.170;8.592;2023-04-30T13:15:34;5.93;;;5.47;;
17398;SDS011;8817;48.170;8.592;2023-04-30T13:18:01;6.65;;;5.90;;
17398;SDS011;8817;48.170;8.592;2023-04-30T13:20:28;5.75;;;5.35;;
17398;SDS011;8817;48.170;8.592;2023-04-30T13:22:55;5.88;;;5.53;;
17398;SDS011;8817;48.170;8.592;2023-04-30T13:25:22;5.78;;;5.40;;
17398;SDS011;8817;48.170;8.592;2023-04-30T13:27:50;5.60;;;5.30;;
17398;SDS011;8817;48.170;8.592;2023-04-30T13:30:17;5.97;;;5.57;;
17398;SDS011;8817;48.170;8.592;2023-04-30T13:32:44;5.80;;;5.50;;
17398;SDS011;8817;48.170;8.592;2023-04-30T13:35:11;5.93;;;5.63;;
17398;SDS011;8817;48.170;8.592;2023-04-30T13:37:38;5.80;;;5.50;;
17398;SDS011;8817;48.170;8.592;2023-04-30T13:40:05;5.85;;;5.50;;
17398;SDS011;8817;48.170;8.592;2023-04-30T13:42:35;5.78;;;5.45;;
17398;SDS011;8817;48.170;8.592;2023-04-30T13:45:05;6.00;;;5.50;;
17398;SDS011;8817;48.170;8.592;2023-04-30T13:47:32;6.00;;;5.60;;
17398;SDS011;8817;48.170;8.592;2023-04-30T13:49:59;5.68;;;5.38;;
17398;SDS011;8817;48.170;8.592;2023-04-30T13:52:26;8.02;;;5.13;;
17398;SDS011;8817;48.170;8.592;2023-04-30T13:54:53;5.38;;;5.18;;
17398;SDS011;8817;48.170;8.592;2023-04-30T13:57:21;5.72;;;5.43;;
17398;SDS011;8817;48.170;8.592;2023-04-30T13:59:48;5.88;;;5.43;;
17398;SDS011;8817;48.170;8.592;2023-04-30T14:02:16;5.88;;;5.57;;
17398;SDS011;8817;48.170;8.592;2023-04-30T14:04:43;6.07;;;5.68;;
17398;SDS011;8817;48.170;8.592;2023-04-30T14:07:10;5.60;;;5.30;;
17398;SDS011;8817;48.170;8.592;2023-04-30T14:09:37;5.88;;;5.43;;
17398;SDS011;8817;48.170;8.592;2023-04-30T14:12:04;6.20;;;5.80;;
17398;SDS011;8817;48.170;8.592;2023-04-30T14:14:31;6.05;;;5.68;;
17398;SDS011;8817;48.170;8.592;2023-04-30T14:16:58;5.75;;;5.40;;
17398;SDS011;8817;48.170;8.592;2023-04-30T14:19:26;6.38;;;5.85;;
17398;SDS011;8817;48.170;8.592;2023-04-30T14:21:53;5.65;;;5.35;;
17398;SDS011;8817;48.170;8.592;2023-04-30T14:24:20;5.28;;;5.03;;
17398;SDS011;8817;48.170;8.592;2023-04-30T14:26:47;5.60;;;5.30;;
17398;SDS011;8817;48.170;8.592;2023-04-30T14:29:14;6.25;;;5.75;;
17398;SDS011;8817;48.170;8.592;2023-04-30T14:31:42;5.72;;;5.43;;
17398;SDS011;8817;48.170;8.592;2023-04-30T14:34:09;5.80;;;5.50;;
17398;SDS011;8817;48.170;8.592;2023-04-30T14:36:38;5.60;;;5.30;;
17398;SDS011;8817;48.170;8.592;2023-04-30T14:39:05;5.53;;;5.22;;
17398;SDS011;8817;48.170;8.592;2023-04-30T14:41:33;5.97;;;5.57;;
17398;SDS011;8817;48.170;8.592;2023-04-30T14:44:01;5.60;;;5.30;;
17398;SDS011;8817;48.170;8.592;2023-04-30T14:46:29;5.50;;;5.20;;
17398;SDS011;8817;48.170;8.592;2023-04-30T14:48:57;5.20;;;5.00;;
17398;SDS011;8817;48.170;8.592;2023-04-30T14:51:24;5.75;;;5.40;;
17398;SDS011;8817;48.170;8.592;2023-04-30T14:53:54;5.38;;;5.10;;
17398;SDS011;8817;48.170;8.592;2023-04-30T14:56:21;5.40;;;5.10;;
17398;SDS011;8817;48.170;8.592;2023-04-30T14:58:49;5.53;;;5.20;;
17398;SDS011;8817;48.170;8.592;2023-04-30T15:01:16;5.57;;;5.28;;
17398;SDS011;8817;48.170;8.592;2023-04-30T15:03:43;5.47;;;5.20;;
17398;SDS011;8817;48.170;8.592;2023-04-30T15:06:10;5.72;;;5.35;;